Friday, October 19, 2018, 2:53 AM EDT
Back to Local

KBWI, Baltimore-washington International

Location: Glen Burnie, MD, United States Lat: 39.167
Local Time: 2:53 AM EDT ( 6:53 GMT) Lon: -76.683
Time Zone: US/Eastern Elev: 147 ft

Show me the last for .
Show Decoded

2018-10-19 01:54 METAR KBWI 190554Z 24003KT 10SM CLR 03/03 A3038 RMK AO2 SLP286 T00330028 10072
                 20028 56004 =
2018-10-19 00:54 METAR KBWI 190454Z 24003KT 10SM CLR 04/03 A3038 RMK AO2 SLP286 T00440033
                 401390039 =
2018-10-18 23:54 METAR KBWI 190354Z 00000KT 10SM CLR 04/03 A3039 RMK AO2 SLP290 T00390033 =
2018-10-18 22:54 METAR KBWI 190254Z 00000KT 10SM CLR 04/03 A3039 RMK AO2 SLP291 T00440033 55001 =
2018-10-18 21:54 METAR KBWI 190154Z 00000KT 10SM CLR 04/03 A3039 RMK AO2 SLP290 T00440033 =
2018-10-18 20:54 METAR KBWI 190054Z 00000KT 10SM CLR 06/03 A3039 RMK AO2 SLP290 T00610033 =
2018-10-18 19:54 METAR KBWI 182354Z 00000KT 10SM CLR 07/03 A3039 RMK AO2 SLP292 T00720033 10139
                 20072 51009 =
2018-10-18 18:54 METAR KBWI 182254Z 00000KT 10SM CLR 11/01 A3039 RMK AO2 SLP290 T01060011 =
2018-10-18 17:54 METAR KBWI 182154Z 30005KT 10SM CLR 12/01 A3038 RMK AO2 SLP287 T01170011 =
2018-10-18 16:54 METAR KBWI 182054Z 31009G19KT 280V350 10SM CLR 13/01 A3036 RMK AO2 SLP282
                 T01330011 56009 =
2018-10-18 15:54 METAR KBWI 181954Z 29007KT 250V320 10SM CLR 14/00 A3037 RMK AO2 SLP284 T01390000
                 =
2018-10-18 14:54 METAR KBWI 181854Z 28010KT 10SM FEW050 13/M01 A3038 RMK AO2 SLP286 T01331006 =
2018-10-18 13:54 METAR KBWI 181754Z 31011G16KT 10SM FEW050 13/M01 A3039 RMK AO2 SLP291 T01281006
                 10133 20050 58013 =
2018-10-18 12:54 METAR KBWI 181654Z 29010G18KT 10SM FEW050 12/M01 A3041 RMK AO2 SLP298 T01221006
                 =
2018-10-18 11:54 METAR KBWI 181554Z 31009KT 10SM FEW050 FEW250 12/M01 A3042 RMK AO2 SLP301
                 T01171011 =
2018-10-18 10:54 METAR KBWI 181454Z 28012KT 10SM SCT050 SCT250 11/M01 A3043 RMK AO2 SLP304
                 T01061011 51013 =
2018-10-18 09:54 METAR KBWI 181354Z 32008G15KT 10SM FEW043 FEW080 FEW250 10/M01 A3042 RMK AO2
                 SLP303 T01001011 =
2018-10-18 08:54 METAR KBWI 181254Z 29007KT 10SM FEW043 SCT080 SCT250 09/M01 A3041 RMK AO2 SLP299
                 T00891006 =
2018-10-18 07:54 METAR KBWI 181154Z 26005KT 10SM FEW043 FEW080 FEW250 04/01 A3039 RMK AO2 SLP291
                 T00440011 10106 20039 53019 =
2018-10-18 06:54 METAR KBWI 181054Z 28005KT 10SM FEW065 SCT080 04/01 A3037 RMK AO2 SLP283
                 T00440006 =
2018-10-18 05:54 METAR KBWI 180954Z 31005KT 10SM SCT065 07/00 A3035 RMK AO2 SLP276 T00670000 =
2018-10-18 04:54 METAR KBWI 180854Z 33004KT 10SM BKN065 08/01 A3033 RMK AO2 SLP271 T00830006
                 51022 =
2018-10-18 03:54 METAR KBWI 180754Z 31005KT 10SM BKN070 08/00 A3031 RMK AO2 SLP264 T00830000 =
2018-10-18 02:54 METAR KBWI 180654Z 29008KT 10SM BKN075 09/00 A3030 RMK AO2 SLP259 T00940000 =

Support USWX by starting your Amazon purchase here.